Time;durP1;ratioP1;P1;durP2;ratioP2;P2;SDS_P1;SDS_P2;PMS_P1;PMS_P2;Temp;Humidity;BMP_temperature;BMP_pressure;BME280_temperature;BME280_humidity;BME280_pressure;Samples;Min_cycle;Max_cycle;Signal;HPM_P1;HPM_P2
2024/01/18 00:00:06;;;;;;;;;;;-0.50;99.90;;;;;;5101501;27;19931;-76
2024/01/18 00:02:33;;;;;;;;;;;-0.50;99.90;;;;;;5088682;28;19932;-75
2024/01/18 00:04:58;;;;;;;;;;;-0.60;99.90;;;;;;5087359;28;19950;-76
2024/01/18 00:07:24;;;;;;;;;;;-0.50;99.90;;;;;;5067356;28;20366;-76
2024/01/18 00:09:49;;;;;;;;;;;-0.40;99.90;;;;;;5089122;28;20008;-76
2024/01/18 00:12:15;;;;;;;;;;;-0.60;99.90;;;;;;5107330;28;19967;-76
2024/01/18 00:14:41;;;;;;;;;;;-0.60;99.90;;;;;;5070363;28;21146;-75
2024/01/18 00:17:06;;;;;;;;;;;-0.60;99.90;;;;;;5068420;28;19932;-76
2024/01/18 00:19:32;;;;;;;;;;;-0.60;99.90;;;;;;5086402;28;19983;-75
2024/01/18 00:21:58;;;;;;;;;;;0.60;99.90;;;;;;5107278;27;19935;-76
2024/01/18 00:24:23;;;;;;;;;;;1.00;99.90;;;;;;5106680;27;20495;-76
2024/01/18 00:26:49;;;;;;;;;;;0.20;99.90;;;;;;5108133;27;19931;-75
2024/01/18 00:29:15;;;;;;;;;;;0.80;99.90;;;;;;5089098;28;19927;-77
2024/01/18 00:31:40;;;;;;;;;;;-0.40;99.90;;;;;;5090152;28;20135;-76
2024/01/18 00:34:12;;;;;;;;;;;-0.30;99.90;;;;;;5092696;28;19942;-75
2024/01/18 00:36:37;;;;;;;;;;;-0.20;99.90;;;;;;5111043;28;19928;-76
2024/01/18 00:39:09;;;;;;;;;;;-0.30;99.90;;;;;;5072374;27;20188;-76
2024/01/18 00:41:38;;;;;;;;;;;-0.10;99.90;;;;;;5103084;28;19938;-76
2024/01/18 00:44:04;;;;;;;;;;;-0.10;99.90;;;;;;5064142;28;19928;-77
2024/01/18 00:46:30;;;;;;;;;;;0.00;99.90;;;;;;5071481;28;20011;-76
2024/01/18 00:48:55;;;;;;;;;;;-0.10;99.90;;;;;;5104943;28;20018;-76
2024/01/18 00:51:21;;;;;;;;;;;-0.20;99.90;;;;;;5084198;28;20328;-76
2024/01/18 00:53:47;;;;;;;;;;;-0.20;99.90;;;;;;5087263;28;19935;-76
2024/01/18 00:56:12;;;;;;;;;;;-0.30;99.90;;;;;;5085793;28;19968;-76
2024/01/18 00:58:39;;;;;;;;;;;-0.20;99.90;;;;;;5107544;28;20381;-76
2024/01/18 01:01:05;;;;;;;;;;;-0.40;99.90;;;;;;5085659;28;19928;-76
2024/01/18 01:03:31;;;;;;;;;;;-0.40;99.90;;;;;;5071280;27;19932;-76
2024/01/18 01:05:57;;;;;;;;;;;-0.50;99.90;;;;;;5088932;28;19924;-76
2024/01/18 01:08:24;;;;;;;;;;;-0.50;99.90;;;;;;5106850;27;19931;-76
2024/01/18 01:10:55;;;;;;;;;;;-0.20;99.90;;;;;;5105031;28;19928;-76
2024/01/18 01:13:21;;;;;;;;;;;-0.60;99.90;;;;;;5054466;28;20363;-77
2024/01/18 01:15:47;;;;;;;;;;;-0.70;99.90;;;;;;5084539;28;19924;-76
2024/01/18 01:18:12;;;;;;;;;;;-0.70;99.90;;;;;;5088730;28;20328;-76
2024/01/18 01:20:38;;;;;;;;;;;-0.80;99.90;;;;;;5087729;28;19935;-76
2024/01/18 01:23:03;;;;;;;;;;;-0.90;99.90;;;;;;5087449;28;20014;-75
2024/01/18 01:25:29;;;;;;;;;;;0.20;99.90;;;;;;5085567;28;19947;-76
2024/01/18 01:27:55;;;;;;;;;;;-1.00;99.90;;;;;;5090067;28;19963;-76
2024/01/18 01:30:21;;;;;;;;;;;-0.20;99.90;;;;;;5088300;28;19971;-76
2024/01/18 01:32:47;;;;;;;;;;;-1.00;99.90;;;;;;5086863;28;19924;-76
2024/01/18 01:35:13;;;;;;;;;;;0.50;99.90;;;;;;5088915;28;19980;-75
2024/01/18 01:37:39;;;;;;;;;;;-1.10;99.90;;;;;;5071607;28;19924;-76
2024/01/18 01:40:05;;;;;;;;;;;-1.20;99.90;;;;;;5105103;28;20375;-76
2024/01/18 01:42:31;;;;;;;;;;;-1.20;99.90;;;;;;5103419;27;20005;-75
2024/01/18 01:44:56;;;;;;;;;;;-1.00;99.90;;;;;;5084796;28;19932;-76
2024/01/18 01:47:22;;;;;;;;;;;-1.30;99.90;;;;;;5071598;28;20342;-76
2024/01/18 01:49:48;;;;;;;;;;;-1.30;99.90;;;;;;5070499;28;19924;-76
2024/01/18 01:52:14;;;;;;;;;;;-1.40;99.90;;;;;;5068387;28;19931;-76
2024/01/18 01:54:40;;;;;;;;;;;-0.80;99.90;;;;;;5084009;28;19919;-76
2024/01/18 01:57:06;;;;;;;;;;;0.00;99.90;;;;;;5086136;28;19966;-76
2024/01/18 01:59:32;;;;;;;;;;;-0.90;99.90;;;;;;5067645;28;20469;-76
2024/01/18 02:01:58;;;;;;;;;;;-1.50;99.90;;;;;;5085490;28;20019;-75
2024/01/18 02:04:24;;;;;;;;;;;-1.40;99.90;;;;;;5084895;28;19934;-75
2024/01/18 02:06:50;;;;;;;;;;;-1.10;99.90;;;;;;5102609;28;20039;-75
2024/01/18 02:09:16;;;;;;;;;;;-1.50;99.90;;;;;;5104214;28;19967;-76
2024/01/18 02:11:42;;;;;;;;;;;-0.80;99.90;;;;;;5104255;28;20455;-75
2024/01/18 02:14:07;;;;;;;;;;;-1.50;99.90;;;;;;5085519;28;19928;-76
2024/01/18 02:16:33;;;;;;;;;;;-1.30;99.90;;;;;;5085378;27;19928;-75
2024/01/18 02:18:59;;;;;;;;;;;-0.30;99.90;;;;;;5087216;28;19944;-76
2024/01/18 02:21:26;;;;;;;;;;;-1.60;99.90;;;;;;5108043;27;19934;-76
2024/01/18 02:23:54;;;;;;;;;;;-1.20;99.90;;;;;;5087833;28;19937;-75
2024/01/18 02:26:20;;;;;;;;;;;-1.80;99.90;;;;;;5084283;27;19928;-76
2024/01/18 02:28:57;;;;;;;;;;;-1.20;99.90;;;;;;5107110;27;19934;-76
2024/01/18 02:31:24;;;;;;;;;;;-1.70;99.90;;;;;;5087468;28;19928;-76
2024/01/18 02:33:49;;;;;;;;;;;-0.80;99.90;;;;;;5089366;28;20298;-75
2024/01/18 02:36:15;;;;;;;;;;;-1.70;99.90;;;;;;5105615;27;19927;-76
2024/01/18 02:38:41;;;;;;;;;;;-1.70;99.90;;;;;;5104123;28;19935;-75
2024/01/18 02:41:07;;;;;;;;;;;0.30;99.90;;;;;;5107064;27;20006;-75
2024/01/18 02:43:33;;;;;;;;;;;-0.90;99.90;;;;;;5089014;27;20014;-76
2024/01/18 02:45:59;;;;;;;;;;;0.20;99.90;;;;;;5102515;28;19968;-74
2024/01/18 02:48:24;;;;;;;;;;;-1.10;99.90;;;;;;5105898;28;19920;-74
2024/01/18 02:50:50;;;;;;;;;;;-1.80;99.90;;;;;;5105991;27;20006;-74
2024/01/18 02:53:16;;;;;;;;;;;-0.80;99.90;;;;;;5103303;27;19987;-74
2024/01/18 02:55:41;;;;;;;;;;;-1.20;99.90;;;;;;5106298;27;20551;-74
2024/01/18 02:58:07;;;;;;;;;;;0.20;99.90;;;;;;5106176;27;20264;-74
2024/01/18 03:00:33;;;;;;;;;;;-1.80;99.90;;;;;;5069658;28;19927;-74
2024/01/18 03:02:59;;;;;;;;;;;-0.60;99.90;;;;;;5086488;28;20053;-75
2024/01/18 03:05:24;;;;;;;;;;;-0.20;99.90;;;;;;5085389;28;20022;-75
2024/01/18 03:07:50;;;;;;;;;;;-1.40;99.90;;;;;;5068858;28;19935;-75
2024/01/18 03:10:15;;;;;;;;;;;-1.40;99.90;;;;;;5071041;28;19931;-74
2024/01/18 03:12:41;;;;;;;;;;;-1.30;99.90;;;;;;5088799;28;19963;-74
2024/01/18 03:15:08;;;;;;;;;;;0.20;99.90;;;;;;5087240;28;19970;-76
2024/01/18 03:17:34;;;;;;;;;;;-1.20;99.90;;;;;;5085605;27;19919;-75
2024/01/18 03:19:59;;;;;;;;;;;-1.20;99.90;;;;;;5087946;28;19956;-74
2024/01/18 03:22:25;;;;;;;;;;;-1.20;99.90;;;;;;5106147;28;19954;-75
2024/01/18 03:24:50;;;;;;;;;;;0.30;99.90;;;;;;5054084;28;19928;-74
2024/01/18 03:27:17;;;;;;;;;;;0.70;99.90;;;;;;5087995;27;20392;-74
2024/01/18 03:29:42;;;;;;;;;;;0.10;99.90;;;;;;5069573;28;19934;-75
2024/01/18 03:32:08;;;;;;;;;;;-1.30;99.90;;;;;;5070580;28;19931;-74
2024/01/18 03:34:34;;;;;;;;;;;0.00;99.90;;;;;;5103513;27;20401;-75
2024/01/18 03:36:59;;;;;;;;;;;-1.00;99.90;;;;;;5088877;28;20018;-75
2024/01/18 03:39:25;;;;;;;;;;;0.00;99.90;;;;;;5104116;27;19931;-75
2024/01/18 03:41:50;;;;;;;;;;;-1.30;99.90;;;;;;5067405;28;19931;-74
2024/01/18 03:44:16;;;;;;;;;;;0.40;99.90;;;;;;5085083;28;19935;-75
2024/01/18 03:46:41;;;;;;;;;;;-1.40;99.90;;;;;;5086934;28;19924;-75
2024/01/18 03:49:07;;;;;;;;;;;-0.70;99.90;;;;;;5104003;27;20072;-75
2024/01/18 03:51:33;;;;;;;;;;;-1.50;99.90;;;;;;5070493;28;19928;-75
2024/01/18 03:53:59;;;;;;;;;;;-0.20;99.90;;;;;;5104731;27;20367;-74
2024/01/18 03:56:24;;;;;;;;;;;-1.50;99.90;;;;;;5088098;28;19935;-74
2024/01/18 03:58:50;;;;;;;;;;;-1.50;99.90;;;;;;5067337;28;19924;-75
2024/01/18 04:01:16;;;;;;;;;;;-1.00;99.90;;;;;;5086503;28;20442;-75
2024/01/18 04:03:48;;;;;;;;;;;-1.40;99.90;;;;;;5087038;28;20321;-75
2024/01/18 04:06:14;;;;;;;;;;;-1.50;99.90;;;;;;5087808;28;20326;-75
2024/01/18 04:08:39;;;;;;;;;;;-1.60;99.90;;;;;;5104617;27;19953;-75
2024/01/18 04:11:05;;;;;;;;;;;-1.30;99.90;;;;;;5083765;28;20496;-75
2024/01/18 04:13:32;;;;;;;;;;;-0.20;99.90;;;;;;5103394;28;20004;-75
2024/01/18 04:15:57;;;;;;;;;;;-0.20;99.90;;;;;;5101278;28;19932;-76
2024/01/18 04:18:23;;;;;;;;;;;0.30;99.90;;;;;;5104487;28;21642;-75
2024/01/18 04:20:52;;;;;;;;;;;-1.30;99.90;;;;;;5103313;28;19928;-75
2024/01/18 04:23:19;;;;;;;;;;;-1.10;99.90;;;;;;5085045;28;20022;-75
2024/01/18 04:25:46;;;;;;;;;;;-1.20;99.90;;;;;;5085481;28;19934;-75
2024/01/18 04:28:12;;;;;;;;;;;0.30;99.90;;;;;;5086970;27;19975;-76
2024/01/18 04:30:37;;;;;;;;;;;0.80;99.90;;;;;;5068717;28;20486;-76
2024/01/18 04:33:03;;;;;;;;;;;-1.00;99.90;;;;;;5085403;28;19924;-75
2024/01/18 04:35:28;;;;;;;;;;;-0.80;99.90;;;;;;5103876;28;19971;-75
2024/01/18 04:37:54;;;;;;;;;;;-0.40;99.90;;;;;;5102725;27;20455;-76
2024/01/18 04:40:20;;;;;;;;;;;-0.50;99.90;;;;;;5085870;27;19928;-76
2024/01/18 04:42:45;;;;;;;;;;;-0.10;99.90;;;;;;5085920;28;20527;-75
2024/01/18 04:45:11;;;;;;;;;;;0.10;99.90;;;;;;5085168;28;20362;-75
2024/01/18 04:47:37;;;;;;;;;;;-0.20;99.90;;;;;;5087545;28;19928;-76
2024/01/18 04:50:03;;;;;;;;;;;0.10;99.90;;;;;;5086486;28;19923;-76
2024/01/18 04:52:29;;;;;;;;;;;-0.20;99.90;;;;;;5105694;27;19979;-76
2024/01/18 04:54:58;;;;;;;;;;;-0.20;99.90;;;;;;5102558;27;20347;-75
2024/01/18 04:57:24;;;;;;;;;;;-0.20;99.90;;;;;;5103653;28;19927;-75
2024/01/18 04:59:51;;;;;;;;;;;-0.20;99.90;;;;;;5084959;28;19931;-75
2024/01/18 05:02:17;;;;;;;;;;;-0.20;99.90;;;;;;5068006;28;19938;-74
2024/01/18 05:04:43;;;;;;;;;;;-0.20;99.90;;;;;;5086002;27;19928;-75
2024/01/18 05:07:09;;;;;;;;;;;0.30;99.90;;;;;;5102821;28;19953;-75
2024/01/18 05:09:34;;;;;;;;;;;0.10;99.90;;;;;;5105879;27;19927;-74
2024/01/18 05:12:00;;;;;;;;;;;-0.30;99.90;;;;;;5107706;28;20466;-75
2024/01/18 05:14:26;;;;;;;;;;;-0.40;99.90;;;;;;5087804;28;20002;-75
2024/01/18 05:16:53;;;;;;;;;;;-0.40;99.90;;;;;;5086495;28;19931;-75
2024/01/18 05:19:19;;;;;;;;;;;-0.50;99.90;;;;;;5085916;28;20642;-75
2024/01/18 05:21:44;;;;;;;;;;;0.70;99.90;;;;;;5086187;28;20010;-75
2024/01/18 05:24:10;;;;;;;;;;;0.00;99.90;;;;;;5086461;28;19964;-75
2024/01/18 05:26:36;;;;;;;;;;;-0.70;99.90;;;;;;5085274;27;19934;-75
2024/01/18 05:29:01;;;;;;;;;;;-0.80;99.90;;;;;;5069500;28;19986;-75
2024/01/18 05:31:27;;;;;;;;;;;-0.80;99.90;;;;;;5101925;28;19939;-75
2024/01/18 05:33:56;;;;;;;;;;;-1.10;99.90;;;;;;5068867;28;19934;-75
2024/01/18 05:36:27;;;;;;;;;;;-1.20;99.90;;;;;;5084101;28;19981;-75
2024/01/18 05:38:52;;;;;;;;;;;0.30;99.90;;;;;;5085250;27;20370;-75
2024/01/18 05:41:18;;;;;;;;;;;-1.30;99.90;;;;;;5084587;28;20021;-75
2024/01/18 05:43:44;;;;;;;;;;;-0.50;99.90;;;;;;5103382;28;20370;-75
2024/01/18 05:46:09;;;;;;;;;;;-0.70;99.90;;;;;;5085712;28;20022;-75
2024/01/18 05:48:35;;;;;;;;;;;-1.70;99.90;;;;;;5084285;28;20397;-75
2024/01/18 05:51:00;;;;;;;;;;;-1.70;99.90;;;;;;5084215;28;19942;-75
2024/01/18 05:53:26;;;;;;;;;;;-1.60;99.90;;;;;;5102258;28;19943;-75
2024/01/18 05:55:52;;;;;;;;;;;-1.80;99.90;;;;;;5086041;28;20392;-74
2024/01/18 05:58:17;;;;;;;;;;;-1.10;99.90;;;;;;5101614;28;19934;-75
2024/01/18 06:00:43;;;;;;;;;;;-1.60;99.90;;;;;;5086829;28;19931;-75
2024/01/18 06:03:09;;;;;;;;;;;0.00;99.90;;;;;;5085601;28;19980;-78
2024/01/18 06:05:34;;;;;;;;;;;-1.90;99.90;;;;;;5081264;28;19932;-75
2024/01/18 06:08:00;;;;;;;;;;;-2.00;99.90;;;;;;5101438;28;20112;-74
2024/01/18 06:10:26;;;;;;;;;;;-2.00;99.90;;;;;;5102628;28;19932;-76
2024/01/18 06:12:51;;;;;;;;;;;-1.70;99.90;;;;;;5080982;28;20550;-79
2024/01/18 06:15:19;;;;;;;;;;;-0.40;99.90;;;;;;5085484;28;20389;-79
2024/01/18 06:17:44;;;;;;;;;;;-2.30;99.90;;;;;;5082320;28;19942;-78
2024/01/18 06:20:13;;;;;;;;;;;-1.90;99.90;;;;;;5086761;28;19924;-79
2024/01/18 06:22:39;;;;;;;;;;;-2.50;99.90;;;;;;5069879;28;20446;-77
2024/01/18 06:25:05;;;;;;;;;;;-1.00;99.90;;;;;;5102041;28;19934;-78
2024/01/18 06:27:31;;;;;;;;;;;-2.50;99.90;;;;;;5070501;28;20369;-79
2024/01/18 06:29:57;;;;;;;;;;;-1.20;99.90;;;;;;5085689;28;19982;-78
2024/01/18 06:32:25;;;;;;;;;;;-1.40;99.90;;;;;;5085266;28;20020;-78
2024/01/18 06:34:51;;;;;;;;;;;-2.10;99.90;;;;;;5101966;28;19969;-78
2024/01/18 06:37:16;;;;;;;;;;;-2.80;99.90;;;;;;5100263;28;20344;-78
2024/01/18 06:39:42;;;;;;;;;;;-1.70;99.90;;;;;;5068887;28;19928;-78
2024/01/18 06:42:08;;;;;;;;;;;-2.80;99.90;;;;;;5071981;28;20428;-77
2024/01/18 06:44:34;;;;;;;;;;;-2.80;99.90;;;;;;5067625;28;19935;-79
2024/01/18 06:47:00;;;;;;;;;;;-1.30;99.90;;;;;;5090762;28;19924;-79
2024/01/18 06:49:26;;;;;;;;;;;-1.00;99.90;;;;;;5090309;28;19939;-80
2024/01/18 06:51:52;;;;;;;;;;;-1.70;99.90;;;;;;5073373;28;19932;-78
2024/01/18 06:54:21;;;;;;;;;;;-0.80;99.90;;;;;;5107201;28;20749;-78
2024/01/18 06:56:47;;;;;;;;;;;-2.90;99.90;;;;;;5102988;28;19935;-80
2024/01/18 06:59:14;;;;;;;;;;;-1.10;99.90;;;;;;5066819;28;20402;-79
2024/01/18 07:01:39;;;;;;;;;;;-0.90;99.90;;;;;;5105981;27;19924;-79
2024/01/18 07:04:05;;;;;;;;;;;-2.00;99.90;;;;;;5072278;28;19954;-78
2024/01/18 07:06:31;;;;;;;;;;;-1.50;99.90;;;;;;5088413;28;19924;-76
2024/01/18 07:08:56;;;;;;;;;;;-0.30;99.90;;;;;;5069221;28;19975;-75
2024/01/18 07:11:22;;;;;;;;;;;-0.90;99.90;;;;;;5069112;28;19998;-75
2024/01/18 07:13:47;;;;;;;;;;;1.00;99.90;;;;;;5089427;28;19939;-76
2024/01/18 07:16:13;;;;;;;;;;;-0.60;99.90;;;;;;5073238;28;19931;-75
2024/01/18 07:18:39;;;;;;;;;;;-0.50;99.90;;;;;;5073718;28;19931;-77
2024/01/18 07:21:06;;;;;;;;;;;-0.30;99.90;;;;;;5086392;27;19946;-86
2024/01/18 07:23:31;;;;;;;;;;;-0.20;99.90;;;;;;5104777;27;19949;-78
2024/01/18 07:25:57;;;;;;;;;;;1.30;99.90;;;;;;5082461;28;19932;-72
2024/01/18 07:28:22;;;;;;;;;;;1.40;99.90;;;;;;5100898;27;19954;-75
2024/01/18 07:30:48;;;;;;;;;;;-0.20;99.90;;;;;;5069253;28;19932;-76
2024/01/18 07:33:14;;;;;;;;;;;-0.10;99.90;;;;;;5084532;27;19981;-80
2024/01/18 07:35:40;;;;;;;;;;;-0.10;99.90;;;;;;5089168;28;19927;-78
2024/01/18 07:38:07;;;;;;;;;;;-0.10;99.90;;;;;;5069556;27;21293;-79
2024/01/18 07:40:33;;;;;;;;;;;1.30;99.90;;;;;;5096770;27;19928;-76
2024/01/18 07:43:00;;;;;;;;;;;-0.10;99.90;;;;;;5085624;27;19951;-75
2024/01/18 07:45:26;;;;;;;;;;;-0.20;99.90;;;;;;5067090;28;19939;-76
2024/01/18 07:47:53;;;;;;;;;;;-0.30;99.90;;;;;;5073522;28;19932;-78
2024/01/18 07:50:18;;;;;;;;;;;-0.40;99.90;;;;;;5093185;28;19928;-80
2024/01/18 07:52:44;;;;;;;;;;;-0.40;99.90;;;;;;5089712;28;20087;-78
2024/01/18 07:55:10;;;;;;;;;;;-0.50;99.90;;;;;;5087045;28;20008;-77
2024/01/18 07:57:36;;;;;;;;;;;-0.60;99.90;;;;;;5070107;28;20379;-78
2024/01/18 08:00:03;;;;;;;;;;;-0.60;99.90;;;;;;5087579;28;19980;-77
2024/01/18 08:02:29;;;;;;;;;;;-0.70;99.90;;;;;;5084951;28;19932;-79
2024/01/18 08:04:54;;;;;;;;;;;-0.50;99.90;;;;;;5086065;28;19928;-79
2024/01/18 08:07:20;;;;;;;;;;;-0.60;99.90;;;;;;5087427;27;19928;-76
2024/01/18 08:09:46;;;;;;;;;;;-0.60;99.90;;;;;;5087641;28;19928;-75
2024/01/18 08:12:11;;;;;;;;;;;-0.50;99.90;;;;;;5106161;28;20760;-80
2024/01/18 08:14:41;;;;;;;;;;;-0.40;99.90;;;;;;5083874;28;19927;-73
2024/01/18 08:17:07;;;;;;;;;;;-0.20;99.90;;;;;;5052973;28;19930;-73
2024/01/18 08:19:40;;;;;;;;;;;-0.10;99.90;;;;;;5086007;27;20025;-74
2024/01/18 08:22:07;;;;;;;;;;;1.00;99.90;;;;;;5069573;28;20010;-71
2024/01/18 08:24:33;;;;;;;;;;;0.00;99.90;;;;;;5101199;28;19980;-74
2024/01/18 08:26:59;;;;;;;;;;;0.20;99.90;;;;;;5084521;27;20050;-75
2024/01/18 08:29:26;;;;;;;;;;;0.00;99.90;;;;;;5071179;28;20017;-73
2024/01/18 08:31:52;;;;;;;;;;;0.00;99.90;;;;;;5098131;27;20267;-72
2024/01/18 08:34:18;;;;;;;;;;;-0.20;99.90;;;;;;5080452;28;20011;-72
2024/01/18 08:36:44;;;;;;;;;;;-0.20;99.90;;;;;;5084011;28;20481;-72
2024/01/18 08:39:15;;;;;;;;;;;0.20;99.90;;;;;;5085542;28;19986;-75
2024/01/18 08:41:42;;;;;;;;;;;-0.30;99.90;;;;;;5081036;28;20158;-72
2024/01/18 08:44:07;;;;;;;;;;;-0.40;99.90;;;;;;5083777;28;20014;-73
2024/01/18 08:46:33;;;;;;;;;;;-0.30;99.90;;;;;;5084629;28;19931;-72
2024/01/18 08:48:59;;;;;;;;;;;0.10;99.90;;;;;;5065921;28;19923;-73
2024/01/18 08:51:25;;;;;;;;;;;0.90;99.90;;;;;;5067483;28;19969;-72
2024/01/18 08:53:51;;;;;;;;;;;-0.10;99.90;;;;;;5064904;28;20324;-72
2024/01/18 08:56:20;;;;;;;;;;;0.20;99.90;;;;;;5100058;27;19924;-75
2024/01/18 08:58:45;;;;;;;;;;;2.20;99.90;;;;;;5069249;28;20439;-77
2024/01/18 09:01:11;;;;;;;;;;;2.10;99.90;;;;;;5084178;28;20090;-76
2024/01/18 09:03:37;;;;;;;;;;;2.60;99.90;;;;;;5066585;28;19954;-76
2024/01/18 09:06:03;;;;;;;;;;;2.70;99.90;;;;;;5081645;28;19932;-74
2024/01/18 09:08:28;;;;;;;;;;;2.40;99.90;;;;;;5101985;28;19924;-76
2024/01/18 09:10:54;;;;;;;;;;;2.30;99.90;;;;;;5067774;28;20710;-73
2024/01/18 09:13:20;;;;;;;;;;;2.10;99.90;;;;;;5083466;28;19924;-73
2024/01/18 09:15:47;;;;;;;;;;;1.90;99.90;;;;;;5101276;27;19928;-73
2024/01/18 09:18:13;;;;;;;;;;;1.90;99.90;;;;;;5085833;28;19934;-73
2024/01/18 09:20:45;;;;;;;;;;;1.70;99.90;;;;;;5065204;28;20035;-73
2024/01/18 09:23:15;;;;;;;;;;;2.00;99.90;;;;;;5100901;27;19924;-73
2024/01/18 09:25:43;;;;;;;;;;;1.60;99.90;;;;;;5066329;28;19943;-75
2024/01/18 09:28:09;;;;;;;;;;;1.50;99.90;;;;;;5068878;28;19961;-73
2024/01/18 09:30:35;;;;;;;;;;;1.60;99.90;;;;;;5067311;28;19967;-73
2024/01/18 09:33:01;;;;;;;;;;;1.60;99.90;;;;;;5081559;28;19924;-73
2024/01/18 09:35:27;;;;;;;;;;;1.60;99.90;;;;;;5097793;27;19935;-73
2024/01/18 09:37:53;;;;;;;;;;;1.50;99.90;;;;;;5084009;28;19928;-73
2024/01/18 09:40:19;;;;;;;;;;;1.50;99.90;;;;;;5082271;28;19920;-73
2024/01/18 09:42:46;;;;;;;;;;;2.00;99.90;;;;;;5101496;28;20014;-74
2024/01/18 09:45:14;;;;;;;;;;;1.60;99.90;;;;;;5080568;28;19932;-74
2024/01/18 09:47:44;;;;;;;;;;;1.60;99.90;;;;;;5083538;28;19954;-74
2024/01/18 09:50:10;;;;;;;;;;;1.60;99.90;;;;;;5084605;28;19923;-74
2024/01/18 09:52:36;;;;;;;;;;;2.20;99.90;;;;;;5055442;28;20052;-74
2024/01/18 09:55:01;;;;;;;;;;;2.70;99.90;;;;;;5083238;28;20467;-74
2024/01/18 09:57:32;;;;;;;;;;;1.70;99.90;;;;;;5066741;28;20392;-74
2024/01/18 10:00:00;;;;;;;;;;;1.70;99.90;;;;;;5052555;28;19935;-74
2024/01/18 10:02:29;;;;;;;;;;;1.50;99.90;;;;;;5057436;28;19935;-73
2024/01/18 10:05:00;;;;;;;;;;;1.40;99.90;;;;;;5037627;28;19940;-73
2024/01/18 10:07:28;;;;;;;;;;;1.60;99.90;;;;;;5007952;28;19972;-73
2024/01/18 10:09:55;;;;;;;;;;;1.90;99.90;;;;;;5040145;28;19932;-73
2024/01/18 10:12:21;;;;;;;;;;;2.30;99.90;;;;;;5008605;28;19977;-73
2024/01/18 10:14:47;;;;;;;;;;;3.00;99.90;;;;;;5042165;28;19924;-72
2024/01/18 10:17:21;;;;;;;;;;;3.80;99.90;;;;;;5023750;28;19986;-72
2024/01/18 10:19:48;;;;;;;;;;;4.70;99.90;;;;;;5046517;28;19947;-72
2024/01/18 10:22:14;;;;;;;;;;;5.60;99.90;;;;;;5040145;28;19929;-73
2024/01/18 10:24:40;;;;;;;;;;;5.90;99.90;;;;;;5038525;28;20294;-73
2024/01/18 10:27:07;;;;;;;;;;;6.20;99.90;;;;;;5023487;28;19952;-73
2024/01/18 10:29:35;;;;;;;;;;;6.00;99.90;;;;;;5039458;28;19924;-73
2024/01/18 10:32:02;;;;;;;;;;;5.80;99.90;;;;;;5038702;28;20023;-73
2024/01/18 10:34:28;;;;;;;;;;;6.50;99.90;;;;;;5047019;28;19928;-74
2024/01/18 10:36:54;;;;;;;;;;;7.30;99.90;;;;;;5022101;28;19951;-74
2024/01/18 10:39:20;;;;;;;;;;;8.00;96.80;;;;;;5084848;28;19924;-73
2024/01/18 10:41:46;;;;;;;;;;;7.90;92.40;;;;;;5066804;28;19927;-74
2024/01/18 10:44:15;;;;;;;;;;;7.80;89.80;;;;;;5081692;28;19934;-74
2024/01/18 10:46:42;;;;;;;;;;;8.10;91.20;;;;;;5088149;28;20030;-74
2024/01/18 10:49:08;;;;;;;;;;;9.10;87.50;;;;;;5086676;28;19928;-74
2024/01/18 10:51:38;;;;;;;;;;;11.10;78.90;;;;;;5099529;28;19939;-73
2024/01/18 10:54:07;;;;;;;;;;;9.50;78.30;;;;;;5069217;28;19928;-75
2024/01/18 10:56:33;;;;;;;;;;;9.60;70.30;;;;;;5084727;28;19935;-75
2024/01/18 10:58:58;;;;;;;;;;;9.90;64.90;;;;;;5086679;28;19924;-75
2024/01/18 11:01:24;;;;;;;;;;;9.90;65.10;;;;;;5087569;28;20414;-75
2024/01/18 11:03:52;;;;;;;;;;;10.00;78.20;;;;;;5088522;28;19934;-75
2024/01/18 11:06:35;;;;;;;;;;;10.00;54.70;;;;;;5103996;28;19927;-75
2024/01/18 11:09:02;;;;;;;;;;;9.30;55.30;;;;;;5098404;27;19963;-79
2024/01/18 11:11:35;;;;;;;;;;;8.60;50.50;;;;;;5102509;28;20427;-77
2024/01/18 11:14:42;;;;;;;;;;;7.30;58.80;;;;;;5097304;28;19928;-77
2024/01/18 11:20:43;;;;;;;;;;;6.70;66.80;;;;;;5102999;27;20588;-79
2024/01/18 11:23:39;;;;;;;;;;;6.30;73.20;;;;;;5102409;27;19992;-79
2024/01/18 11:29:34;;;;;;;;;;;5.70;79.10;;;;;;5088111;28;20324;-77
2024/01/18 11:32:01;;;;;;;;;;;5.50;81.20;;;;;;5085843;28;19928;-78
2024/01/18 11:34:31;;;;;;;;;;;5.40;84.30;;;;;;5067355;28;20383;-78
2024/01/18 11:37:10;;;;;;;;;;;5.20;85.60;;;;;;5096186;28;19932;-80
2024/01/18 11:39:48;;;;;;;;;;;5.20;86.50;;;;;;5098845;28;20340;-80
2024/01/18 11:42:18;;;;;;;;;;;5.10;87.90;;;;;;5081557;27;19928;-78
2024/01/18 11:45:03;;;;;;;;;;;4.90;88.80;;;;;;5100149;27;20400;-77
2024/01/18 11:47:29;;;;;;;;;;;4.80;88.20;;;;;;5084236;28;19928;-77
2024/01/18 11:49:56;;;;;;;;;;;4.70;89.00;;;;;;5083745;27;19927;-77
2024/01/18 11:52:22;;;;;;;;;;;4.60;89.30;;;;;;5065942;27;19931;-78
2024/01/18 11:54:51;;;;;;;;;;;4.60;89.40;;;;;;5082088;28;19970;-77
2024/01/18 11:57:17;;;;;;;;;;;4.30;90.00;;;;;;5086666;28;19973;-77
2024/01/18 11:59:45;;;;;;;;;;;4.20;90.30;;;;;;5086128;28;19927;-76
2024/01/18 12:02:14;;;;;;;;;;;4.20;90.50;;;;;;5102626;27;19935;-76
2024/01/18 12:04:39;;;;;;;;;;;4.00;91.00;;;;;;5083826;28;19928;-77
2024/01/18 12:07:06;;;;;;;;;;;4.00;91.40;;;;;;5068572;28;19923;-77
2024/01/18 12:09:32;;;;;;;;;;;3.90;91.90;;;;;;5083878;28;20006;-75
2024/01/18 12:11:59;;;;;;;;;;;3.80;91.70;;;;;;5102128;28;20290;-77
2024/01/18 12:14:25;;;;;;;;;;;3.70;91.70;;;;;;5069329;28;20038;-77
2024/01/18 12:16:52;;;;;;;;;;;3.60;91.90;;;;;;5083019;28;20018;-77
2024/01/18 12:19:31;;;;;;;;;;;3.50;92.00;;;;;;5082603;28;20012;-77
2024/01/18 12:21:57;;;;;;;;;;;3.40;92.00;;;;;;5085548;28;20176;-76
2024/01/18 12:24:23;;;;;;;;;;;3.50;92.20;;;;;;5067784;28;19984;-77
2024/01/18 12:26:58;;;;;;;;;;;3.40;92.20;;;;;;5086105;28;19975;-76
2024/01/18 12:29:24;;;;;;;;;;;3.30;92.40;;;;;;5081910;28;19923;-75
2024/01/18 12:31:50;;;;;;;;;;;3.20;92.40;;;;;;5066448;28;19928;-76
2024/01/18 12:34:20;;;;;;;;;;;3.20;91.50;;;;;;5084910;28;19924;-74
2024/01/18 12:36:46;;;;;;;;;;;3.20;90.80;;;;;;5083296;28;20277;-75
2024/01/18 12:39:18;;;;;;;;;;;3.10;90.60;;;;;;5101660;27;19931;-76
2024/01/18 12:41:45;;;;;;;;;;;3.40;90.20;;;;;;5095220;27;20060;-72
2024/01/18 12:44:13;;;;;;;;;;;3.00;89.90;;;;;;5084285;28;19920;-72
2024/01/18 12:46:40;;;;;;;;;;;3.00;88.80;;;;;;5070804;28;19978;-72
2024/01/18 12:49:06;;;;;;;;;;;2.90;88.30;;;;;;5085031;28;19939;-72
2024/01/18 12:51:33;;;;;;;;;;;3.50;89.10;;;;;;5085536;27;19920;-72
2024/01/18 12:54:00;;;;;;;;;;;2.90;86.90;;;;;;5085636;28;19924;-72
2024/01/18 12:56:25;;;;;;;;;;;2.90;84.10;;;;;;5069901;28;19928;-72
2024/01/18 12:58:52;;;;;;;;;;;2.90;85.70;;;;;;5087822;28;20208;-72
2024/01/18 13:01:28;;;;;;;;;;;2.80;86.40;;;;;;5088969;28;19970;-72
2024/01/18 13:04:14;;;;;;;;;;;2.80;87.10;;;;;;5103228;28;19932;-72
2024/01/18 13:06:44;;;;;;;;;;;2.80;87.30;;;;;;5085181;28;19970;-70
2024/01/18 13:09:13;;;;;;;;;;;2.80;86.40;;;;;;5085905;28;19928;-72
2024/01/18 13:11:39;;;;;;;;;;;2.80;86.20;;;;;;5065225;28;19981;-72
2024/01/18 13:14:06;;;;;;;;;;;2.70;82.90;;;;;;5082261;28;19927;-76
2024/01/18 13:16:34;;;;;;;;;;;2.70;83.90;;;;;;5087647;28;19927;-78
2024/01/18 13:19:05;;;;;;;;;;;2.70;84.20;;;;;;5085716;27;20339;-71
2024/01/18 13:21:32;;;;;;;;;;;2.70;85.50;;;;;;5085119;28;20394;-73
2024/01/18 13:23:59;;;;;;;;;;;2.70;85.90;;;;;;5086040;28;19963;-74
2024/01/18 13:26:25;;;;;;;;;;;2.70;86.60;;;;;;5086404;28;19935;-75
2024/01/18 13:28:54;;;;;;;;;;;2.70;87.20;;;;;;5108107;28;20014;-75
2024/01/18 13:31:19;;;;;;;;;;;2.70;88.00;;;;;;5089117;27;20363;-74
2024/01/18 13:33:45;;;;;;;;;;;2.70;90.00;;;;;;5106378;27;19935;-74
2024/01/18 13:36:11;;;;;;;;;;;3.30;87.50;;;;;;5071838;28;19923;-75
2024/01/18 13:38:37;;;;;;;;;;;2.70;85.80;;;;;;5084853;28;19934;-75
2024/01/18 13:41:03;;;;;;;;;;;3.40;86.90;;;;;;5083192;28;20167;-74
2024/01/18 13:43:29;;;;;;;;;;;2.70;86.70;;;;;;5084643;28;19971;-74
2024/01/18 13:45:57;;;;;;;;;;;2.70;88.30;;;;;;5067738;28;19924;-75
2024/01/18 13:48:23;;;;;;;;;;;2.70;86.40;;;;;;5098255;28;19935;-75
2024/01/18 13:50:49;;;;;;;;;;;2.70;82.80;;;;;;5067673;28;19927;-74
2024/01/18 13:53:16;;;;;;;;;;;4.20;85.40;;;;;;5082327;28;19939;-75
2024/01/18 13:55:47;;;;;;;;;;;3.00;85.50;;;;;;5087300;28;20457;-75
2024/01/18 13:58:13;;;;;;;;;;;2.70;85.50;;;;;;5084307;28;20268;-73
2024/01/18 14:00:39;;;;;;;;;;;2.60;85.30;;;;;;5082993;28;19928;-73
2024/01/18 14:03:07;;;;;;;;;;;2.60;85.60;;;;;;5084919;28;20398;-75
2024/01/18 14:05:32;;;;;;;;;;;2.60;86.90;;;;;;5079814;28;19935;-71
2024/01/18 14:07:58;;;;;;;;;;;2.60;86.20;;;;;;5085351;28;20484;-72
2024/01/18 14:10:24;;;;;;;;;;;2.60;87.30;;;;;;5083628;28;19927;-73
2024/01/18 14:12:50;;;;;;;;;;;2.60;87.40;;;;;;5064084;28;20273;-73
2024/01/18 14:15:16;;;;;;;;;;;2.60;88.30;;;;;;5099797;28;19976;-71
2024/01/18 14:17:43;;;;;;;;;;;2.80;87.80;;;;;;5065278;28;19932;-72
2024/01/18 14:20:11;;;;;;;;;;;2.60;88.70;;;;;;5066023;28;19939;-72
2024/01/18 14:22:37;;;;;;;;;;;3.90;88.50;;;;;;5080295;28;20245;-72
2024/01/18 14:25:03;;;;;;;;;;;3.70;88.40;;;;;;5063895;28;20648;-72
2024/01/18 14:27:29;;;;;;;;;;;2.50;87.90;;;;;;5082097;28;19927;-72